createdAt,value
2019-02-25T00:04:46.049Z,102745.50
2019-02-25T00:09:48.511Z,102745.95
2019-02-25T00:14:50.974Z,102750.19
2019-02-25T00:19:53.425Z,102740.58
2019-02-25T00:24:55.877Z,102745.23
2019-02-25T00:29:58.333Z,102731.50
2019-02-25T00:35:00.785Z,102734.52
2019-02-25T00:40:03.253Z,102727.58
2019-02-25T00:45:05.701Z,102724.13
2019-02-25T00:50:14.042Z,102725.45
2019-02-25T00:55:16.500Z,102741.47
2019-02-25T01:00:21.950Z,102746.13
2019-02-25T01:05:24.393Z,102744.83
2019-02-25T01:10:26.852Z,102740.89
2019-02-25T01:15:29.310Z,102740.78
2019-02-25T01:20:31.766Z,102731.28
2019-02-25T01:25:34.217Z,102730.61
2019-02-25T01:30:36.666Z,102734.53
2019-02-25T01:35:39.188Z,102724.77
2019-02-25T01:40:41.575Z,102722.61
2019-02-25T01:45:44.047Z,102719.34
2019-02-25T01:50:46.511Z,102715.42
2019-02-25T01:55:48.964Z,102703.31
2019-02-25T02:00:51.421Z,102699.11
2019-02-25T02:05:53.880Z,102698.61
2019-02-25T02:10:56.324Z,102702.64
2019-02-25T02:15:58.761Z,102705.20
2019-02-25T02:21:01.209Z,102704.50
2019-02-25T02:26:03.660Z,102707.44
2019-02-25T02:31:06.097Z,102712.85
2019-02-25T02:36:11.414Z,102710.67
2019-02-25T02:41:11.009Z,102708.41
2019-02-25T02:46:20.445Z,102695.48
2019-02-25T02:51:22.935Z,102691.92
2019-02-25T02:56:25.426Z,102688.78
2019-02-25T03:01:27.887Z,102706.45
2019-02-25T03:06:30.357Z,102698.86
2019-02-25T03:11:32.822Z,102705.32
2019-02-25T03:16:35.268Z,102705.59
2019-02-25T03:21:37.723Z,102712.23
2019-02-25T03:26:40.171Z,102715.37
2019-02-25T03:31:42.619Z,102716.72
2019-02-25T03:36:45.065Z,102714.70
2019-02-25T03:41:47.520Z,102730.78
2019-02-25T03:46:49.987Z,102726.87
2019-02-25T03:51:52.454Z,102721.23
2019-02-25T03:56:54.897Z,102720.10
2019-02-25T04:01:57.382Z,102723.86
2019-02-25T04:06:59.834Z,102732.70
2019-02-25T04:12:02.286Z,102730.05
2019-02-25T04:17:04.738Z,102732.01
2019-02-25T04:22:07.179Z,102734.87
2019-02-25T04:27:09.633Z,102732.14
2019-02-25T04:32:12.156Z,102732.55
2019-02-25T04:37:14.547Z,102733.84
2019-02-25T04:42:17.034Z,102741.68
2019-02-25T04:47:19.507Z,102736.09
2019-02-25T04:52:21.963Z,102734.14
2019-02-25T04:57:24.425Z,102736.81
2019-02-25T05:02:26.889Z,102735.36
2019-02-25T05:07:29.343Z,102726.56
2019-02-25T05:12:31.796Z,102731.61
2019-02-25T05:17:34.251Z,102741.97
2019-02-25T05:22:37.574Z,102737.97
2019-02-25T05:27:39.153Z,102722.31
2019-02-25T05:32:41.620Z,102723.34
2019-02-25T05:37:44.126Z,102730.55
2019-02-25T05:42:46.541Z,102731.61
2019-02-25T05:47:48.999Z,102727.92
2019-02-25T05:52:51.486Z,102732.75
2019-02-25T05:57:53.935Z,102736.17
2019-02-25T06:02:56.403Z,102732.56
2019-02-25T06:07:58.864Z,102728.05
2019-02-25T06:13:01.317Z,102741.58
2019-02-25T06:18:03.781Z,102743.11
2019-02-25T06:23:06.231Z,102738.86
2019-02-25T06:28:08.686Z,102750.47
2019-02-25T06:33:11.222Z,102749.46
2019-02-25T06:38:13.682Z,102754.09
2019-02-25T06:43:16.142Z,102759.22
2019-02-25T06:48:18.592Z,102761.39
2019-02-25T06:53:21.148Z,102769.49
2019-02-25T06:58:23.636Z,102774.47
2019-02-25T07:03:26.129Z,102773.44
2019-02-25T07:08:40.777Z,102763.98
2019-02-25T07:13:46.003Z,102770.61
2019-02-25T07:19:06.888Z,102758.81
2019-02-25T07:24:09.365Z,102771.90
2019-02-25T07:29:20.962Z,102769.25
2019-02-25T07:34:26.348Z,102775.48
2019-02-25T07:39:34.716Z,102761.43
2019-02-25T07:44:37.174Z,102774.55
2019-02-25T07:49:57.793Z,102770.42
2019-02-25T07:55:12.453Z,102767.09
2019-02-25T08:00:23.946Z,102765.41
2019-02-25T08:05:26.408Z,102761.79
2019-02-25T08:10:28.877Z,102755.08
2019-02-25T08:15:31.327Z,102765.54
2019-02-25T08:20:33.808Z,102758.59
2019-02-25T08:25:36.267Z,102758.81
2019-02-25T08:30:38.728Z,102770.36
2019-02-25T08:36:02.393Z,102778.66
2019-02-25T08:41:08.055Z,102775.30
2019-02-25T08:46:25.812Z,102772.07
2019-02-25T08:51:28.267Z,102773.64
2019-02-25T08:56:30.733Z,102783.97
2019-02-25T09:01:33.267Z,102780.26
2019-02-25T09:06:35.658Z,102789.14
2019-02-25T09:11:38.123Z,102788.98
2019-02-25T09:16:40.581Z,102782.45
2019-02-25T09:21:49.432Z,102788.37
2019-02-25T09:26:51.886Z,102796.36
2019-02-25T09:31:54.345Z,102794.77
2019-02-25T09:36:56.810Z,102802.16
2019-02-25T09:41:59.276Z,102795.53
2019-02-25T09:47:01.911Z,102795.75
2019-02-25T09:52:04.380Z,102797.10
2019-02-25T09:57:06.849Z,102793.61
2019-02-25T10:02:09.297Z,102792.48
2019-02-25T10:07:11.767Z,102790.80
2019-02-25T10:12:14.238Z,102781.60
2019-02-25T10:17:23.433Z,102778.31
2019-02-25T10:22:19.140Z,102772.97
2019-02-25T10:27:21.595Z,102769.10
2019-02-25T10:32:26.008Z,102770.13
2019-02-25T10:37:26.509Z,102765.79
2019-02-25T10:42:29.511Z,102757.92
2019-02-25T10:47:31.435Z,102751.25
2019-02-25T10:52:33.920Z,102757.98
2019-02-25T10:57:36.395Z,102753.50
2019-02-25T11:02:44.218Z,102746.27
2019-02-25T11:07:42.048Z,102749.58
2019-02-25T11:12:43.756Z,102726.70
2019-02-25T11:17:47.686Z,102723.28
2019-02-25T11:22:48.694Z,102713.59
2019-02-25T11:27:51.127Z,102711.91
2019-02-25T11:32:55.665Z,102701.61
2019-02-25T11:37:58.441Z,102707.23
2019-02-25T11:42:58.518Z,102705.09
2019-02-25T11:48:00.989Z,102711.39
2019-02-25T11:53:03.533Z,102706.17
2019-02-25T11:58:06.002Z,102706.94
2019-02-25T12:03:08.458Z,102700.31
2019-02-25T12:08:10.917Z,102696.19
2019-02-25T12:13:13.368Z,102682.54
2019-02-25T12:18:15.838Z,102679.93
2019-02-25T12:23:18.280Z,102677.97
2019-02-25T12:28:20.741Z,102668.28
2019-02-25T12:33:23.202Z,102672.72
2019-02-25T12:38:25.651Z,102663.70
2019-02-25T12:43:28.182Z,102660.11
2019-02-25T12:48:30.650Z,102648.41
2019-02-25T12:53:33.116Z,102639.69
2019-02-25T12:58:35.571Z,102634.63
2019-02-25T13:03:38.093Z,102623.67
2019-02-25T13:08:40.542Z,102619.55
2019-02-25T13:13:42.995Z,102609.72
2019-02-25T13:18:45.464Z,102612.40
2019-02-25T13:23:47.926Z,102599.34
2019-02-25T13:28:50.395Z,102589.72
2019-02-25T13:33:52.914Z,102590.41
2019-02-25T13:38:55.377Z,102582.16
2019-02-25T13:43:57.848Z,102572.44
2019-02-25T13:49:00.312Z,102572.67
2019-02-25T13:54:02.776Z,102562.25
2019-02-25T13:59:05.232Z,102554.52
2019-02-25T14:04:17.963Z,102556.39
2019-02-25T14:09:20.413Z,102545.64
2019-02-25T14:14:22.868Z,102537.08
2019-02-25T14:19:25.339Z,102529.69
2019-02-25T14:24:27.790Z,102519.54
2019-02-25T14:29:30.267Z,102506.69
2019-02-25T14:34:32.764Z,102505.31
2019-02-25T14:39:36.023Z,102502.39
2019-02-25T14:44:38.642Z,102489.06
2019-02-25T14:49:41.070Z,102481.73
2019-02-25T14:54:42.648Z,102484.36
2019-02-25T14:59:45.103Z,102485.82
2019-02-25T15:04:47.556Z,102476.39
2019-02-25T15:09:50.038Z,102470.66
2019-02-25T15:14:52.490Z,102476.39
2019-02-25T15:19:54.963Z,102471.83
2019-02-25T15:24:59.168Z,102463.48
2019-02-25T15:29:59.882Z,102466.59
2019-02-25T15:35:02.382Z,102457.06
2019-02-25T15:40:09.713Z,102462.09
2019-02-25T15:45:10.260Z,102460.58
2019-02-25T15:50:14.692Z,102453.21
2019-02-25T15:55:17.394Z,102458.08
2019-02-25T16:00:21.253Z,102454.59
2019-02-25T16:05:25.181Z,102454.72
2019-02-25T16:10:25.595Z,102455.76
2019-02-25T16:15:28.066Z,102460.65
2019-02-25T16:20:32.522Z,102459.30
2019-02-25T16:25:34.527Z,102451.16
2019-02-25T16:30:35.561Z,102447.85
2019-02-25T16:35:39.054Z,102457.16
2019-02-25T16:40:40.505Z,102449.72
2019-02-25T16:45:45.306Z,102455.19
2019-02-25T16:50:46.391Z,102456.18
2019-02-25T16:55:49.224Z,102456.01
2019-02-25T17:00:50.405Z,102463.62
2019-02-25T17:05:52.925Z,102463.01
2019-02-25T17:10:57.391Z,102473.58
2019-02-25T17:15:57.857Z,102465.01
2019-02-25T17:21:00.315Z,102472.95
2019-02-25T17:26:03.798Z,102475.46
2019-02-25T17:31:06.590Z,102475.13
2019-02-25T17:36:08.572Z,102484.47
2019-02-25T17:41:10.786Z,102490.06
2019-02-25T17:46:14.482Z,102492.27
2019-02-25T17:51:16.189Z,102486.37
2019-02-25T17:56:18.500Z,102491.62
2019-02-25T18:01:21.997Z,102492.97
2019-02-25T18:06:26.957Z,102491.55
2019-02-25T18:11:25.344Z,102488.55
2019-02-25T18:16:27.798Z,102493.46
2019-02-25T18:21:30.311Z,102503.50
2019-02-25T18:26:32.775Z,102512.82
2019-02-25T18:31:35.248Z,102511.23
2019-02-25T18:36:37.757Z,102520.84
2019-02-25T18:41:40.207Z,102517.52
2019-02-25T18:46:44.042Z,102505.47
2019-02-25T18:51:45.222Z,102501.08
2019-02-25T18:56:47.716Z,102493.05
2019-02-25T19:01:51.813Z,102499.11
2019-02-25T19:06:52.690Z,102507.97
2019-02-25T19:11:56.178Z,102515.38
2019-02-25T19:16:58.135Z,102515.48
2019-02-25T19:22:00.121Z,102516.81
2019-02-25T19:27:03.916Z,102515.77
2019-02-25T19:32:05.083Z,102523.59
2019-02-25T19:37:09.598Z,102518.02
2019-02-25T19:42:09.997Z,102520.95
2019-02-25T19:47:16.870Z,102519.19
2019-02-25T19:52:18.111Z,102522.28
2019-02-25T19:57:21.656Z,102515.68
2019-02-25T20:02:24.763Z,102515.03
2019-02-25T20:07:27.911Z,102510.50
2019-02-25T20:12:30.851Z,102514.95
2019-02-25T20:17:33.338Z,102512.92
2019-02-25T20:22:36.704Z,102513.56
2019-02-25T20:27:46.471Z,102514.16
2019-02-25T20:32:48.942Z,102517.38
2019-02-25T20:37:53.766Z,102515.53
2019-02-25T20:42:55.997Z,102525.72
2019-02-25T20:47:57.223Z,102531.66
2019-02-25T20:53:04.955Z,102528.75
2019-02-25T20:58:01.700Z,102537.28
2019-02-25T21:03:04.196Z,102537.04
2019-02-25T21:08:06.679Z,102540.68
2019-02-25T21:13:09.151Z,102539.20
2019-02-25T21:18:11.639Z,102544.95
2019-02-25T21:23:14.101Z,102529.39
2019-02-25T21:28:16.588Z,102534.19
2019-02-25T21:33:19.891Z,102533.92
2019-02-25T21:38:22.247Z,102522.40
2019-02-25T21:43:28.958Z,102520.42
2019-02-25T21:48:30.248Z,102515.69
2019-02-25T21:53:31.813Z,102510.06
2019-02-25T21:58:34.741Z,102504.27
2019-02-25T22:03:39.792Z,102506.69
2019-02-25T22:08:39.685Z,102510.17
2019-02-25T22:13:42.138Z,102507.93
2019-02-25T22:18:44.618Z,102510.19
2019-02-25T22:23:47.072Z,102507.84
2019-02-25T22:28:50.994Z,102499.15
2019-02-25T22:33:52.000Z,102495.73
2019-02-25T22:38:56.542Z,102501.58
2019-02-25T22:43:56.952Z,102502.33
2019-02-25T22:49:00.941Z,102497.20
2019-02-25T22:54:03.666Z,102503.05
2019-02-25T22:59:04.931Z,102508.19
2019-02-25T23:04:13.066Z,102511.75
2019-02-25T23:09:14.127Z,102513.00
2019-02-25T23:14:16.259Z,102514.91
2019-02-25T23:19:18.150Z,102509.66
2019-02-25T23:24:19.303Z,102502.08
2019-02-25T23:29:25.676Z,102505.20
2019-02-25T23:34:24.222Z,102503.22
2019-02-25T23:39:26.674Z,102502.50
2019-02-25T23:44:29.129Z,102499.88
2019-02-25T23:49:31.576Z,102513.85
2019-02-25T23:54:34.027Z,102520.53
2019-02-25T23:59:40.389Z,102518.05
